Time;durP1;ratioP1;P1;durP2;ratioP2;P2;SDS_P1;SDS_P2;PMS_P1;PMS_P2;Temp;Humidity;BMP_temperature;BMP_pressure;BME280_temperature;BME280_humidity;BME280_pressure;Samples;Min_cycle;Max_cycle;Signal;HPM_P1;HPM_P2
2022/07/24 00:01:16;;;;;;;0.40;0.40;;;21.00;99.90;22.10;101757.00;;;;6251107;22;20211;-63
2022/07/24 00:03:46;;;;;;;0.88;0.88;;;20.90;99.90;22.50;101749.00;;;;6276628;22;20484;-63
2022/07/24 00:06:23;;;;;;;0.60;0.60;;;21.10;99.90;22.40;101754.00;;;;6251249;22;20171;-63
2022/07/24 00:08:51;;;;;;;0.30;0.30;;;21.20;99.90;21.90;101751.00;;;;6276682;22;20165;-63
2022/07/24 00:11:40;;;;;;;0.60;0.60;;;21.00;99.90;21.00;101756.00;;;;6250269;22;20187;-63
2022/07/24 00:14:30;;;;;;;0.67;0.67;;;20.50;99.90;20.40;101741.00;;;;6251046;22;20222;-65
2022/07/24 00:17:18;;;;;;;0.40;0.40;;;20.00;99.90;20.20;101740.00;;;;6242738;22;20167;-63
2022/07/24 00:20:08;;;;;;;0.77;0.77;;;19.70;99.90;20.20;101777.00;;;;6225194;22;20660;-63
2022/07/24 00:22:56;;;;;;;0.45;0.45;;;19.60;99.90;20.50;101775.00;;;;6250961;22;20166;-63
2022/07/24 00:25:43;;;;;;;0.77;0.77;;;19.70;99.90;21.10;101768.00;;;;6251316;22;20160;-63
2022/07/24 00:28:34;;;;;;;1.43;1.33;;;19.90;99.90;20.90;101769.00;;;;6225864;22;20613;-63
2022/07/24 00:31:13;;;;;;;0.97;0.97;;;19.90;99.90;21.40;101761.00;;;;6250171;22;20592;-63
2022/07/24 00:34:00;;;;;;;0.30;0.30;;;20.20;99.90;21.20;101765.00;;;;6276546;22;20581;-63
2022/07/24 00:36:46;;;;;;;0.40;0.40;;;20.20;99.90;21.10;101764.00;;;;6225551;22;20194;-63
2022/07/24 00:39:55;;;;;;;0.40;0.40;;;20.30;99.90;21.10;101758.00;;;;6250471;22;20154;-63
2022/07/24 00:42:41;;;;;;;0.30;0.30;;;20.10;99.90;21.00;101758.00;;;;6251765;22;20172;-64
2022/07/24 00:45:32;;;;;;;1.20;1.20;;;20.20;99.90;20.50;101759.00;;;;6231031;22;20179;-63
2022/07/24 00:48:28;;;;;;;0.30;0.30;;;19.90;99.90;20.00;101763.00;;;;6259088;22;20587;-63
2022/07/24 00:51:43;;;;;;;0.77;0.77;;;19.60;99.90;20.10;101753.00;;;;6251640;22;20492;-63
2022/07/24 00:54:31;;;;;;;0.40;0.40;;;19.50;99.90;20.10;101764.00;;;;6255379;22;20161;-63
2022/07/24 01:02:44;;;;;;;4.10;3.23;;;19.70;99.90;21.30;101752.00;;;;6096435;23;20202;-64
2022/07/24 01:05:37;;;;;;;0.40;0.40;;;20.10;99.90;21.00;101745.00;;;;6038723;23;20637;-63
2022/07/24 01:08:09;;;;;;;1.03;1.03;;;20.20;99.90;21.00;101748.00;;;;6036270;23;20222;-63
2022/07/24 01:10:39;;;;;;;0.40;0.40;;;20.20;99.90;20.10;101750.00;;;;6048331;23;20599;-63
2022/07/24 01:13:14;;;;;;;0.80;0.80;;;19.70;99.90;20.00;101752.00;;;;6073384;22;20623;-63
2022/07/24 01:16:02;;;;;;;2.10;2.00;;;19.60;99.90;19.50;101749.00;;;;6225781;22;20227;-64
2022/07/24 01:19:10;;;;;;;0.57;0.57;;;19.20;99.90;20.10;101750.00;;;;6250323;22;20496;-65
2022/07/24 01:22:32;;;;;;;2.00;1.90;;;19.30;99.90;20.10;101744.00;;;;6247400;22;20591;-65
2022/07/24 01:25:42;;;;;;;0.73;0.73;;;19.50;99.90;20.10;101748.00;;;;6093619;23;20169;-63
2022/07/24 01:28:33;;;;;;;0.70;0.70;;;19.50;99.90;19.50;101740.00;;;;6092576;23;20173;-65
2022/07/24 01:31:53;;;;;;;1.10;1.00;;;19.20;99.90;20.30;101745.00;;;;6095515;23;20175;-65
2022/07/24 01:34:41;;;;;;;2.83;2.63;;;19.20;99.90;20.20;101740.00;;;;6086866;23;20568;-65
2022/07/24 01:37:22;;;;;;;0.57;0.57;;;19.30;99.90;19.40;101748.00;;;;6099454;23;20213;-64
2022/07/24 01:40:47;;;;;;;1.93;1.83;;;19.00;99.90;19.20;101749.00;;;;6099154;23;20188;-64
2022/07/24 01:43:53;;;;;;;0.30;0.30;;;18.80;99.90;19.50;101749.00;;;;6098832;23;20165;-64
2022/07/24 01:46:55;;;;;;;2.80;2.60;;;18.90;99.90;20.10;101738.00;;;;6076083;23;20226;-65
2022/07/24 01:49:46;;;;;;;1.90;1.80;;;19.10;99.90;19.60;101711.00;;;;6224637;22;20157;-65
2022/07/24 01:52:28;;;;;;;1.10;1.10;;;19.10;99.90;19.40;101722.00;;;;6224593;22;20181;-65
2022/07/24 01:55:09;;;;;;;1.07;0.80;;;18.90;99.90;19.70;101740.00;;;;6224569;22;20164;-65
2022/07/24 01:58:38;;;;;;;0.40;0.40;;;18.90;99.90;20.10;101726.00;;;;6224865;22;20505;-63
2022/07/24 02:05:57;;;;;;;0.30;0.30;;;19.30;99.90;19.50;101701.00;;;;6257050;22;20256;-65
2022/07/24 02:09:16;;;;;;;0.30;0.30;;;19.00;99.90;20.10;101706.00;;;;6123221;23;20645;-63
2022/07/24 02:12:21;;;;;;;0.40;0.40;;;19.00;99.90;20.30;101716.00;;;;6220353;22;20699;-63
2022/07/24 02:15:11;;;;;;;0.40;0.40;;;19.10;99.90;19.90;101707.00;;;;6249334;22;20198;-63
2022/07/24 02:18:56;;;;;;;1.87;1.77;;;19.30;99.90;20.30;101704.00;;;;6224098;22;20158;-63
2022/07/24 02:21:43;;;;;;;0.40;0.40;;;19.30;99.90;19.90;101691.00;;;;6248459;22;20182;-64
2022/07/24 02:24:59;;;;;;;3.03;2.83;;;19.20;99.90;20.10;101704.00;;;;6232054;22;20166;-63
2022/07/24 02:27:35;;;;;;;0.37;0.37;;;19.30;99.90;20.10;101708.00;;;;6227515;22;20193;-64
2022/07/24 02:30:25;;;;;;;0.30;0.30;;;19.30;99.90;20.50;101704.00;;;;6224776;22;20325;-63
2022/07/24 02:33:16;;;;;;;0.30;0.30;;;19.30;99.90;19.80;101696.00;;;;6202390;22;20194;-63
2022/07/24 02:35:52;;;;;;;0.30;0.30;;;19.10;99.90;20.00;101705.00;;;;6229434;22;20189;-63
2022/07/24 02:38:41;;;;;;;0.30;0.30;;;19.00;99.90;19.50;101703.00;;;;6250160;22;20464;-63
2022/07/24 02:41:11;;;;;;;0.30;0.30;;;18.80;99.90;19.80;101707.00;;;;6249954;22;20161;-63
2022/07/24 02:43:47;;;;;;;0.40;0.40;;;18.80;99.90;19.80;101705.00;;;;6250067;22;20156;-63
2022/07/24 02:46:40;;;;;;;1.03;1.03;;;18.80;99.90;19.30;101711.00;;;;6249723;22;20198;-63
2022/07/24 02:49:32;;;;;;;0.40;0.40;;;18.60;99.90;19.50;101709.00;;;;6225489;22;20174;-63
2022/07/24 02:52:23;;;;;;;0.53;0.53;;;18.60;99.90;19.00;101712.00;;;;6228843;22;20178;-63
2022/07/24 02:55:12;;;;;;;1.47;0.77;;;18.50;99.90;19.50;101686.00;;;;6221658;22;20159;-63
2022/07/24 02:58:03;;;;;;;0.50;0.50;;;18.50;99.90;19.30;101704.00;;;;6219225;22;20193;-63
2022/07/24 03:00:49;;;;;;;1.60;1.50;;;18.50;99.90;19.70;101700.00;;;;6202963;22;20181;-63
2022/07/24 03:03:39;;;;;;;0.57;0.57;;;18.60;99.90;18.80;101682.00;;;;6224748;22;20185;-64
2022/07/24 03:06:29;;;;;;;0.30;0.30;;;18.40;99.90;19.00;101682.00;;;;6216970;22;20157;-63
2022/07/24 03:09:17;;;;;;;0.40;0.40;;;18.20;99.90;19.30;101690.00;;;;6237994;22;20167;-65
2022/07/24 03:11:48;;;;;;;0.40;0.40;;;18.30;99.90;18.60;101682.00;;;;6201746;22;20181;-65
2022/07/24 03:14:37;;;;;;;0.40;0.40;;;18.10;99.90;18.60;101685.00;;;;6224365;22;20170;-64
2022/07/24 03:17:25;;;;;;;0.40;0.40;;;18.00;99.90;19.00;101651.00;;;;6251518;22;20199;-65
2022/07/24 03:20:16;;;;;;;0.40;0.40;;;18.10;99.90;19.10;101679.00;;;;6251503;22;20164;-65
2022/07/24 03:22:53;;;;;;;1.33;1.33;;;18.20;99.90;19.20;101680.00;;;;6251818;22;20173;-65
2022/07/24 03:26:05;;;;;;;0.40;0.40;;;18.20;99.90;19.50;101690.00;;;;6251854;22;20289;-65
2022/07/24 03:28:53;;;;;;;0.40;0.40;;;18.30;99.90;19.40;101679.00;;;;6252556;22;20231;-65
2022/07/24 03:31:40;;;;;;;0.40;0.40;;;18.50;99.90;20.00;101676.00;;;;6203607;22;20181;-65
2022/07/24 03:34:53;;;;;;;0.40;0.40;;;18.60;99.90;19.80;101681.00;;;;6225750;22;20249;-63
2022/07/24 03:37:57;;;;;;;2.70;2.60;;;18.70;99.90;19.40;101678.00;;;;6231064;22;20162;-63
2022/07/24 03:40:42;;;;;;;1.27;1.27;;;18.60;99.90;19.10;101672.00;;;;6226590;22;20257;-63
2022/07/24 03:43:11;;;;;;;0.60;0.60;;;18.40;99.90;18.80;101682.00;;;;6225739;22;20179;-63
2022/07/24 03:45:43;;;;;;;0.33;0.33;;;18.10;99.90;19.10;101647.00;;;;6226190;22;20255;-63
2022/07/24 03:48:34;;;;;;;0.40;0.40;;;18.10;99.90;19.00;101669.00;;;;6251473;22;20163;-63
2022/07/24 03:51:29;;;;;;;0.90;0.90;;;18.00;99.90;18.90;101682.00;;;;6251906;22;20178;-63
2022/07/24 03:55:11;;;;;;;0.37;0.37;;;18.00;99.90;18.30;101683.00;;;;6231366;22;20148;-63
2022/07/24 03:57:59;;;;;;;0.40;0.40;;;17.70;99.90;18.70;101683.00;;;;6218208;22;20165;-63
2022/07/24 04:00:51;;;;;;;2.50;1.23;;;17.70;99.90;18.40;101658.00;;;;6226302;22;20159;-63
2022/07/24 04:03:43;;;;;;;0.33;0.33;;;17.60;99.90;18.70;101688.00;;;;6204589;22;20196;-63
2022/07/24 04:06:34;;;;;;;0.50;0.50;;;17.70;99.90;18.40;101675.00;;;;6226470;22;20160;-63
2022/07/24 04:09:31;;;;;;;0.60;0.60;;;17.70;99.90;18.50;101670.00;;;;6225962;22;20242;-63
2022/07/24 04:12:30;;;;;;;0.37;0.37;;;17.70;99.90;18.50;101673.00;;;;6251254;22;20253;-63
2022/07/24 04:15:45;;;;;;;0.60;0.60;;;17.70;99.90;18.40;101664.00;;;;6250859;22;20242;-63
2022/07/24 04:19:07;;;;;;;0.47;0.47;;;17.70;99.90;18.30;101663.00;;;;6228665;22;20151;-63
2022/07/24 04:21:55;;;;;;;1.47;1.37;;;17.60;99.90;18.40;101652.00;;;;6224505;22;20253;-63
2022/07/24 04:24:39;;;;;;;0.40;0.40;;;17.60;99.90;18.40;101657.00;;;;6251078;22;20165;-63
2022/07/24 04:27:11;;;;;;;0.43;0.43;;;17.60;99.90;18.50;101655.00;;;;6251633;22;20164;-63
2022/07/24 04:29:57;;;;;;;0.33;0.33;;;17.60;99.90;18.20;101663.00;;;;6250993;22;20174;-63
2022/07/24 04:32:47;;;;;;;0.40;0.40;;;17.60;99.90;18.30;101658.00;;;;6225312;22;20198;-63
2022/07/24 04:35:24;;;;;;;0.40;0.40;;;17.60;99.90;18.50;101663.00;;;;6250852;22;20168;-63
2022/07/24 04:38:11;;;;;;;0.30;0.30;;;17.70;99.90;18.50;101667.00;;;;6225591;22;20217;-63
2022/07/24 04:41:21;;;;;;;0.30;0.30;;;17.70;99.90;18.60;101664.00;;;;6228148;22;20244;-63
2022/07/24 04:46:42;;;;;;;0.30;0.30;;;17.80;99.90;18.30;101678.00;;;;6277913;22;20179;-63
2022/07/24 04:49:23;;;;;;;0.30;0.30;;;17.80;99.90;18.80;101680.00;;;;6258135;22;20211;-63
2022/07/24 04:51:59;;;;;;;0.30;0.30;;;17.90;99.90;19.80;101684.00;;;;6276588;22;20166;-64
2022/07/24 04:55:08;;;;;;;0.50;0.50;;;18.50;99.90;19.30;101674.00;;;;6276789;22;20193;-63
2022/07/24 04:57:57;;;;;;;0.53;0.53;;;18.70;99.90;19.50;101682.00;;;;6232600;22;20164;-63
2022/07/24 05:00:46;;;;;;;0.15;0.15;;;18.90;99.90;20.00;101676.00;;;;6253799;22;20149;-63
2022/07/24 05:03:35;;;;;;;0.10;0.10;;;19.20;99.90;20.50;101676.00;;;;6276393;22;20157;-63
2022/07/24 05:06:24;;;;;;;0.32;0.32;;;19.60;99.90;21.20;101681.00;;;;6276752;22;20171;-64
2022/07/24 05:09:10;;;;;;;0.40;0.40;;;20.20;99.90;21.10;101668.00;;;;6228196;22;20157;-63
2022/07/24 05:11:52;;;;;;;0.45;0.45;;;20.40;99.90;21.50;101687.00;;;;6276304;22;20185;-64
2022/07/24 05:14:32;;;;;;;0.10;0.10;;;20.70;99.90;21.70;101667.00;;;;6250016;22;20168;-64
2022/07/24 05:17:23;;;;;;;0.40;0.40;;;21.00;99.90;21.60;101708.00;;;;6276509;22;20592;-64
2022/07/24 05:20:13;;;;;;;0.10;0.10;;;21.10;99.90;23.70;101726.00;;;;6226150;22;20168;-64
2022/07/24 05:23:02;;;;;;;0.10;0.10;;;21.80;99.90;24.10;101752.00;;;;6254128;22;20182;-64
2022/07/24 05:25:36;;;;;;;0.17;0.17;;;22.50;99.90;23.40;101756.00;;;;6250850;22;20489;-64
2022/07/24 05:28:13;;;;;;;0.10;0.10;;;22.60;99.90;23.20;101746.00;;;;6276154;22;20227;-64
2022/07/24 05:30:51;;;;;;;0.65;0.65;;;22.30;99.90;23.10;101748.00;;;;6225912;22;20479;-64
2022/07/24 05:33:46;;;;;;;1.23;1.13;;;22.20;99.90;23.50;101761.00;;;;6275576;22;20652;-64
2022/07/24 05:36:39;;;;;;;1.15;0.40;;;22.40;99.90;25.30;101785.00;;;;6226993;22;20161;-64
2022/07/24 05:40:02;;;;;;;2.50;2.30;;;23.50;99.90;23.00;101761.00;;;;6251942;22;20597;-64
2022/07/24 05:42:51;;;;;;;1.10;1.05;;;22.60;99.90;23.20;101745.00;;;;6247231;22;20616;-64
2022/07/24 05:45:30;;;;;;;0.10;0.10;;;22.50;99.90;23.90;101771.00;;;;6225229;22;20479;-64
2022/07/24 05:48:19;;;;;;;0.30;0.30;;;22.60;99.90;24.20;101794.00;;;;6275965;22;20629;-64
2022/07/24 05:51:13;;;;;;;0.80;0.80;;;23.10;99.90;23.10;101778.00;;;;6227969;22;20153;-64
2022/07/24 05:54:35;;;;;;;0.10;0.10;;;22.90;99.90;24.90;101792.00;;;;6254422;22;20165;-64
2022/07/24 05:57:20;;;;;;;0.17;0.17;;;23.40;99.90;25.70;101815.00;;;;6231880;22;20219;-64
2022/07/24 06:00:05;;;;;;;0.17;0.17;;;24.20;99.90;26.40;101820.00;;;;6250295;22;20164;-64
2022/07/24 06:02:55;;;;;;;0.30;0.30;;;24.70;99.90;25.60;101820.00;;;;6275760;22;20222;-64
2022/07/24 06:05:38;;;;;;;0.68;0.68;;;24.50;99.90;24.40;101807.00;;;;6275854;22;20228;-64
2022/07/24 06:12:11;;;;;;;0.20;0.20;;;24.30;99.90;29.40;101869.00;;;;6273114;22;20171;-65
2022/07/24 06:15:11;;;;;;;0.10;0.10;;;27.50;99.90;25.30;101822.00;;;;6273932;22;20161;-63
2022/07/24 06:18:02;;;;;;;0.25;0.25;;;25.10;99.90;25.50;101805.00;;;;6270316;22;20498;-63
2022/07/24 06:20:33;;;;;;;0.10;0.10;;;24.60;99.90;25.80;101822.00;;;;6226945;22;20652;-63
2022/07/24 06:23:22;;;;;;;1.48;0.52;;;24.50;99.90;24.10;101804.00;;;;6275820;22;20161;-63
2022/07/24 06:26:06;;;;;;;0.50;0.50;;;23.60;99.90;24.50;101801.00;;;;6250302;22;20184;-64
2022/07/24 06:28:53;;;;;;;0.20;0.20;;;23.40;99.90;27.10;101845.00;;;;6275876;22;20156;-64
2022/07/24 06:31:38;;;;;;;0.10;0.10;;;24.80;99.90;28.60;101864.00;;;;6226224;22;20167;-64
2022/07/24 06:34:26;;;;;;;0.20;0.20;;;26.30;99.90;29.80;101870.00;;;;6275533;22;20163;-64
2022/07/24 06:37:08;;;;;;;0.70;0.70;;;27.10;99.90;29.10;101842.00;;;;6249979;22;20164;-64
2022/07/24 06:40:02;;;;;;;0.20;0.20;;;28.00;99.90;26.90;101858.00;;;;6249959;22;20153;-64
2022/07/24 07:11:22;;;;;;;0.10;0.10;;;26.90;99.90;30.50;101872.00;;;;6340514;22;20203;-62
2022/07/24 07:14:27;;;;;;;0.63;0.40;;;28.00;99.90;26.50;101859.00;;;;6291679;22;20162;-61
2022/07/24 07:17:29;;;;;;;0.10;0.10;;;26.30;99.90;28.40;101860.00;;;;6287336;22;20187;-62
2022/07/24 07:20:39;;;;;;;0.50;0.47;;;26.80;99.90;28.00;101869.00;;;;6287281;22;20174;-62
2022/07/24 07:23:35;;;;;;;0.95;0.90;;;26.40;99.90;29.20;101886.00;;;;6289631;22;20164;-62
2022/07/24 07:26:46;;;;;;;0.10;0.10;;;28.50;99.90;32.10;101871.00;;;;6340960;22;20147;-62
2022/07/24 07:29:19;;;;;;;0.15;0.15;;;29.40;99.90;30.00;101883.00;;;;6272049;22;20212;-62
2022/07/24 07:31:57;;;;;;;0.10;0.10;;;29.70;99.90;29.10;101849.00;;;;6312722;22;20176;-62
2022/07/24 07:34:50;;;;;;;0.10;0.10;;;28.50;99.90;28.70;101877.00;;;;6288844;22;20151;-62
2022/07/24 07:37:36;;;;;;;0.10;0.10;;;28.10;99.90;29.30;101878.00;;;;6263646;22;20160;-62
2022/07/24 07:40:27;;;;;;;0.05;0.05;;;28.00;99.90;30.10;101882.00;;;;6286751;22;20178;-62
2022/07/24 07:43:15;;;;;;;1.23;1.13;;;28.70;99.90;27.50;101886.00;;;;6293686;22;20241;-62
2022/07/24 07:46:16;;;;;;;0.10;0.10;;;27.60;99.90;26.60;101847.00;;;;6312724;22;20274;-62
2022/07/24 07:49:03;;;;;;;0.10;0.10;;;26.40;99.90;26.50;101872.00;;;;6313101;22;20170;-62
2022/07/24 07:51:58;;;;;;;0.55;0.55;;;26.00;99.90;26.40;101856.00;;;;6312445;22;20220;-62
2022/07/24 07:55:00;;;;;;;0.10;0.10;;;25.60;99.90;28.90;101874.00;;;;6317231;22;20234;-62
2022/07/24 07:58:05;;;;;;;0.20;0.20;;;27.70;99.90;28.70;101870.00;;;;6286973;22;20151;-62
2022/07/24 08:05:01;;;;;;;0.10;0.10;;;27.20;99.90;30.20;101861.00;;;;6082994;23;20172;-62
2022/07/24 08:08:14;;;;;;;0.10;0.10;;;27.90;99.90;32.90;101870.00;;;;6071665;23;20165;-62
2022/07/24 08:11:18;;;;;;;0.20;0.20;;;30.00;99.90;31.70;101869.00;;;;6095741;23;20504;-63
2022/07/24 08:14:33;;;;;;;0.10;0.10;;;30.90;99.90;29.70;101873.00;;;;6095541;23;20247;-61
2022/07/24 08:17:22;;;;;;;0.10;0.10;;;29.30;99.90;29.90;101864.00;;;;6095953;23;20230;-61
2022/07/24 08:20:49;;;;;;;0.75;0.75;;;28.50;99.90;28.00;101873.00;;;;6092448;23;20228;-61
2022/07/24 08:23:27;;;;;;;0.52;0.52;;;28.70;99.90;29.90;101865.00;;;;6160142;23;20182;-62
2022/07/24 08:26:50;;;;;;;0.30;0.20;;;28.50;99.90;28.00;101863.00;;;;6184613;23;20241;-62
2022/07/24 08:30:00;;;;;;;0.10;0.10;;;27.70;99.90;28.00;101860.00;;;;6135649;23;20253;-63
2022/07/24 08:38:08;;;;;;;0.10;0.10;;;27.20;99.90;28.90;101854.00;;;;5982007;24;20199;-62
2022/07/24 08:41:02;;;;;;;0.35;0.35;;;27.00;99.90;28.80;101853.00;;;;5944781;24;20198;-62
2022/07/24 08:44:09;;;;;;;0.20;0.20;;;27.40;99.90;29.30;101851.00;;;;6019962;23;20256;-62
2022/07/24 08:47:21;;;;;;;0.20;0.20;;;28.10;99.90;32.50;101852.00;;;;6042570;23;20245;-65
2022/07/24 08:50:36;;;;;;;0.20;0.20;;;29.80;99.90;30.90;101851.00;;;;6066382;23;20158;-64
2022/07/24 08:53:44;;;;;;;0.10;0.10;;;29.90;99.90;33.50;101825.00;;;;6059067;23;20189;-61
2022/07/24 08:56:33;;;;;;;0.00;0.00;;;31.00;99.90;31.30;101829.00;;;;6022023;23;20189;-61
2022/07/24 08:59:25;;;;;;;0.32;0.32;;;30.10;99.90;32.50;101816.00;;;;6063834;23;20551;-62
2022/07/24 09:02:14;;;;;;;0.00;0.00;;;30.50;99.90;32.70;101820.00;;;;6042397;23;20260;-62
2022/07/24 09:05:03;;;;;;;0.25;0.25;;;31.30;99.90;30.90;101827.00;;;;6063589;23;20170;-62
2022/07/24 09:08:12;;;;;;;1.02;1.02;;;30.00;99.90;31.30;101810.00;;;;6042398;23;20236;-62
2022/07/24 09:11:06;;;;;;;0.15;0.15;;;30.10;99.90;31.70;101813.00;;;;6018485;23;20662;-62
2022/07/24 09:17:19;;;;;;;0.00;0.00;;;29.20;99.90;30.00;101791.00;;;;6045701;23;20229;-61
2022/07/24 09:19:59;;;;;;;0.47;0.38;;;29.10;99.90;30.10;101817.00;;;;6021420;23;20561;-62
2022/07/24 09:27:05;;;;;;;0.10;0.10;;;29.30;99.90;31.10;101822.00;;;;6037329;23;20210;-62
2022/07/24 09:29:35;;;;;;;0.32;0.32;;;29.80;99.90;28.70;101830.00;;;;6036021;23;20171;-61
2022/07/24 09:32:22;;;;;;;0.10;0.10;;;28.60;99.90;31.00;101819.00;;;;6036382;23;20190;-62
2022/07/24 09:35:22;;;;;;;0.10;0.10;;;29.10;99.90;32.90;101802.00;;;;6035955;23;20197;-62
2022/07/24 09:38:00;;;;;;;0.47;0.47;;;30.60;99.90;31.00;101796.00;;;;6120936;23;20169;-62
2022/07/24 09:40:51;;;;;;;0.10;0.10;;;30.40;99.90;30.30;101817.00;;;;6074871;23;20172;-61
2022/07/24 09:43:28;;;;;;;0.10;0.10;;;29.70;99.90;31.20;101812.00;;;;6130496;23;20166;-62
2022/07/24 09:46:19;;;;;;;0.43;0.43;;;29.70;99.90;31.70;101802.00;;;;6162611;23;20162;-62
2022/07/24 09:48:58;;;;;;;0.10;0.10;;;30.30;99.90;29.30;101802.00;;;;6187384;23;20165;-63
2022/07/24 09:52:10;;;;;;;0.20;0.20;;;28.80;99.90;30.60;101808.00;;;;6186730;23;20194;-62
2022/07/24 09:54:52;;;;;;;0.30;0.30;;;29.40;99.90;31.10;101812.00;;;;6212652;23;20157;-62
2022/07/24 09:57:34;;;;;;;0.10;0.10;;;30.10;99.90;32.00;101789.00;;;;6329095;22;20194;-62
2022/07/24 10:00:06;;;;;;;1.80;1.65;;;30.90;99.90;33.50;101781.00;;;;6308302;22;20567;-62
2022/07/24 10:02:54;;;;;;;0.25;0.25;;;31.80;99.90;31.00;101778.00;;;;6309127;22;20238;-62
2022/07/24 10:06:26;;;;;;;0.60;0.60;;;30.30;99.90;34.10;101771.00;;;;6281091;22;20418;-62
2022/07/24 10:09:21;;;;;;;0.45;0.20;;;31.90;99.90;31.40;101774.00;;;;6176189;23;20253;-62
2022/07/24 10:12:55;;;;;;;0.45;0.45;;;30.70;99.90;31.80;101774.00;;;;6187111;23;20277;-62
2022/07/24 10:16:28;;;;;;;1.35;0.75;;;31.00;99.90;30.40;101779.00;;;;6103991;23;20179;-62
2022/07/24 10:19:41;;;;;;;0.10;0.10;;;30.00;99.90;32.30;101776.00;;;;6175934;23;20166;-62
2022/07/24 10:33:47;;;;;;;0.40;0.40;;;29.40;99.90;30.90;101771.00;;;;5152072;27;20905;-62
2022/07/24 10:37:05;;;;;;;0.20;0.20;;;30.00;99.90;31.30;101769.00;;;;5113700;28;20190;-63
2022/07/24 10:40:07;;;;;;;0.10;0.10;;;30.50;99.90;32.10;101762.00;;;;5131546;28;20217;-63
2022/07/24 10:43:10;;;;;;;1.40;1.30;;;31.00;99.90;29.70;101772.00;;;;5012182;28;20202;-63
2022/07/24 10:45:56;;;;;;;1.15;0.70;;;29.90;99.90;31.20;101776.00;;;;5028229;28;20187;-63
2022/07/24 10:48:41;;;;;;;0.63;0.40;;;29.70;99.90;31.80;101768.00;;;;5028232;28;20207;-63
2022/07/24 10:51:53;;;;;;;0.65;0.65;;;30.50;99.90;31.90;101761.00;;;;5027945;28;20592;-60
2022/07/24 10:54:47;;;;;;;0.10;0.10;;;30.90;99.90;33.10;101751.00;;;;4996425;28;20191;-63
2022/07/24 10:57:56;;;;;;;0.10;0.10;;;31.30;99.90;33.10;101739.00;;;;5011792;28;20201;-63
2022/07/24 11:00:54;;;;;;;0.30;0.30;;;31.40;99.90;31.20;101760.00;;;;5026262;28;20187;-62
2022/07/24 11:03:45;;;;;;;0.05;0.05;;;30.20;99.90;31.30;101755.00;;;;4991658;28;20242;-62
2022/07/24 11:06:42;;;;;;;0.10;0.10;;;30.00;99.90;32.50;101732.00;;;;4991166;28;20238;-62
2022/07/24 11:09:29;;;;;;;0.10;0.10;;;30.90;99.90;31.60;101754.00;;;;4975629;28;20188;-62
2022/07/24 11:18:16;;;;;;;1.10;1.00;;;32.00;99.90;33.40;101707.00;;;;5008030;28;20278;-63
2022/07/24 11:21:06;;;;;;;0.10;0.10;;;32.30;99.10;32.20;101723.00;;;;5065288;28;20245;-62
2022/07/24 11:27:48;;;;;;;0.55;0.55;;;31.90;98.80;32.80;101712.00;;;;5058581;28;20213;-63
2022/07/24 11:30:33;;;;;;;0.10;0.10;;;32.60;97.60;35.70;101709.00;;;;5046219;28;20205;-63
2022/07/24 11:33:24;;;;;;;0.40;0.40;;;33.70;97.20;33.20;101698.00;;;;5108296;28;20320;-63
2022/07/24 11:36:12;;;;;;;0.10;0.10;;;32.90;96.60;35.10;101714.00;;;;5099600;28;20196;-63
2022/07/24 11:39:36;;;;;;;0.13;0.13;;;33.70;96.20;34.10;101719.00;;;;5075958;28;20168;-63
2022/07/24 11:42:13;;;;;;;0.20;0.20;;;33.80;95.40;32.90;101719.00;;;;5109468;28;20631;-62
2022/07/24 11:45:06;;;;;;;0.20;0.20;;;32.90;95.60;35.00;101700.00;;;;5061820;28;20185;-63
2022/07/24 11:48:19;;;;;;;0.15;0.15;;;33.10;96.30;34.70;101696.00;;;;5072106;28;20660;-63
2022/07/24 11:51:15;;;;;;;0.10;0.10;;;33.50;95.70;34.90;101693.00;;;;5061602;28;20269;-63
2022/07/24 11:54:02;;;;;;;0.10;0.10;;;33.40;95.80;34.70;101693.00;;;;5061506;28;20189;-63
2022/07/24 11:56:48;;;;;;;0.63;0.52;;;33.30;95.80;32.50;101690.00;;;;5061351;28;20181;-62
2022/07/24 11:59:33;;;;;;;0.98;0.38;;;32.20;95.20;32.80;101681.00;;;;5061326;28;20204;-63
2022/07/24 12:02:56;;;;;;;0.20;0.20;;;31.70;95.90;33.10;101693.00;;;;5089286;28;20631;-62
2022/07/24 12:05:33;;;;;;;0.20;0.20;;;31.30;96.80;31.80;101666.00;;;;5081234;28;20529;-63
2022/07/24 12:08:26;;;;;;;0.10;0.10;;;30.90;96.70;33.70;101682.00;;;;5081058;28;20260;-62
2022/07/24 12:11:22;;;;;;;0.10;0.10;;;31.30;97.20;32.50;101687.00;;;;5081792;28;20237;-62
2022/07/24 12:14:16;;;;;;;0.93;0.70;;;31.40;96.80;32.10;101683.00;;;;5077552;28;20279;-62
2022/07/24 12:18:11;;;;;;;0.30;0.30;;;31.00;97.10;32.00;101682.00;;;;5081032;28;20653;-62
2022/07/24 12:20:45;;;;;;;0.40;0.40;;;30.60;97.60;31.70;101662.00;;;;5102467;28;20187;-62
2022/07/24 12:23:30;;;;;;;0.10;0.10;;;30.60;97.40;32.40;101682.00;;;;5081187;28;20228;-62
2022/07/24 12:26:21;;;;;;;1.95;1.02;;;30.80;97.60;31.40;101684.00;;;;5080819;28;20286;-62
2022/07/24 12:29:12;;;;;;;0.10;0.10;;;30.70;97.60;32.60;101680.00;;;;5097789;28;20637;-62
2022/07/24 12:32:17;;;;;;;1.30;1.20;;;30.80;98.30;31.90;101652.00;;;;5082950;28;20224;-63
2022/07/24 12:35:31;;;;;;;0.35;0.35;;;30.90;97.70;32.00;101668.00;;;;5097498;28;20267;-62
2022/07/24 12:38:31;;;;;;;0.65;0.45;;;31.20;97.60;31.60;101679.00;;;;5085413;28;20252;-63
2022/07/24 12:44:08;;;;;;;0.10;0.10;;;30.70;98.40;33.10;101648.00;;;;5115591;28;20266;-61
2022/07/24 12:46:57;;;;;;;0.10;0.10;;;31.00;98.80;32.30;101633.00;;;;5097929;28;20186;-61
2022/07/24 12:49:43;;;;;;;0.20;0.20;;;31.00;98.40;33.80;101630.00;;;;5080540;28;20184;-61
2022/07/24 12:53:07;;;;;;;2.67;1.02;;;31.50;98.30;33.30;101627.00;;;;5097074;28;20224;-60
2022/07/24 12:56:03;;;;;;;0.10;0.10;;;31.50;97.70;33.20;101622.00;;;;5071261;28;20614;-61
2022/07/24 12:59:01;;;;;;;0.38;0.38;;;31.70;97.40;32.60;101634.00;;;;5096965;28;20172;-61
2022/07/24 13:01:52;;;;;;;0.10;0.10;;;31.40;97.70;32.60;101621.00;;;;5097509;28;20175;-60
2022/07/24 13:04:29;;;;;;;0.82;0.82;;;31.20;97.60;30.70;101626.00;;;;5096781;28;20172;-62
2022/07/24 13:07:51;;;;;;;0.10;0.10;;;30.00;98.30;32.20;101619.00;;;;5076624;28;20184;-60
2022/07/24 13:10:55;;;;;;;0.20;0.20;;;30.30;99.20;32.70;101612.00;;;;5083438;28;20188;-61
2022/07/24 13:13:49;;;;;;;0.17;0.17;;;30.80;98.90;32.40;101603.00;;;;5114733;28;20183;-60
2022/07/24 13:16:38;;;;;;;0.10;0.10;;;31.00;98.60;32.80;101603.00;;;;5073695;28;20733;-61
2022/07/24 13:19:33;;;;;;;0.40;0.40;;;31.00;99.10;32.80;101592.00;;;;5115251;28;20679;-61
2022/07/24 13:22:24;;;;;;;0.10;0.10;;;31.20;98.40;33.00;101585.00;;;;5114352;28;20556;-60
2022/07/24 13:26:03;;;;;;;0.35;0.35;;;31.30;98.30;32.80;101591.00;;;;5114988;28;20183;-60
2022/07/24 13:29:12;;;;;;;0.10;0.10;;;31.50;98.30;33.00;101583.00;;;;5076296;28;20290;-61
2022/07/24 13:32:16;;;;;;;0.22;0.20;;;31.50;98.30;32.80;101584.00;;;;5076294;28;20208;-61
2022/07/24 13:35:20;;;;;;;0.10;0.10;;;31.40;98.50;32.80;101569.00;;;;5076438;28;20229;-61
2022/07/24 13:38:59;;;;;;;0.10;0.10;;;31.20;98.60;33.00;101563.00;;;;5093130;28;20177;-61
2022/07/24 13:42:07;;;;;;;0.10;0.10;;;31.30;98.50;32.80;101549.00;;;;5062317;28;20604;-61
2022/07/24 13:45:08;;;;;;;0.43;0.40;;;31.30;98.40;32.80;101549.00;;;;5078781;28;20208;-61
2022/07/24 13:48:27;;;;;;;0.30;0.30;;;31.20;98.80;32.50;101546.00;;;;5078704;28;20519;-62
2022/07/24 13:51:43;;;;;;;0.10;0.10;;;31.40;98.40;32.90;101545.00;;;;5096428;28;20168;-62
2022/07/24 13:55:00;;;;;;;0.20;0.20;;;31.00;98.70;33.00;101526.00;;;;5112045;28;20259;-61
2022/07/24 13:58:01;;;;;;;0.10;0.10;;;31.40;98.60;33.40;101509.00;;;;5101306;28;20233;-61
2022/07/24 14:01:07;;;;;;;0.10;0.10;;;31.30;98.90;33.80;101525.00;;;;5095900;28;20192;-61
2022/07/24 14:04:43;;;;;;;1.42;1.17;;;31.70;98.50;31.90;101542.00;;;;5095672;28;20530;-61
2022/07/24 14:07:56;;;;;;;0.77;0.55;;;31.00;98.60;32.90;101526.00;;;;5095455;28;20184;-61
2022/07/24 14:11:17;;;;;;;0.10;0.10;;;31.00;99.20;33.30;101518.00;;;;5095419;28;20270;-61
2022/07/24 14:14:29;;;;;;;0.15;0.15;;;31.50;98.90;33.40;101512.00;;;;5103082;28;20215;-61